createdAt,value
2022-12-29T00:01:09.971Z,11.90
2022-12-29T00:03:38.029Z,11.90
2022-12-29T00:06:06.200Z,11.90
2022-12-29T00:08:41.648Z,11.90
2022-12-29T00:11:09.896Z,12.00
2022-12-29T00:13:52.123Z,12.00
2022-12-29T00:16:20.087Z,11.90
2022-12-29T00:18:48.130Z,12.00
2022-12-29T00:21:34.005Z,12.00
2022-12-29T00:24:23.125Z,12.00
2022-12-29T00:27:12.620Z,12.00
2022-12-29T00:29:58.293Z,12.00
2022-12-29T00:32:43.838Z,12.00
2022-12-29T00:35:13.854Z,12.00
2022-12-29T00:38:08.871Z,12.00
2022-12-29T00:40:55.651Z,12.00
2022-12-29T00:43:41.284Z,12.00
2022-12-29T00:46:12.871Z,12.10
2022-12-29T00:49:01.471Z,12.00
2022-12-29T00:51:29.347Z,12.00
2022-12-29T00:53:57.283Z,12.10
2022-12-29T00:56:26.548Z,12.10
2022-12-29T00:58:54.450Z,12.10
2022-12-29T01:01:22.406Z,12.10
2022-12-29T01:03:50.404Z,12.10
2022-12-29T01:06:18.290Z,12.10
2022-12-29T01:08:46.307Z,12.20
2022-12-29T01:11:14.142Z,12.20
2022-12-29T01:13:44.747Z,12.20
2022-12-29T01:16:12.831Z,12.10
2022-12-29T01:18:40.745Z,12.10
2022-12-29T01:21:08.913Z,12.10
2022-12-29T01:23:36.844Z,12.10
2022-12-29T01:26:11.194Z,12.20
2022-12-29T01:28:39.926Z,12.10
2022-12-29T01:31:09.683Z,12.10
2022-12-29T01:33:38.089Z,12.10
2022-12-29T01:36:08.271Z,12.10
2022-12-29T01:38:37.849Z,12.10
2022-12-29T01:41:06.721Z,12.10
2022-12-29T01:43:42.949Z,12.10
2022-12-29T01:46:20.819Z,12.10
2022-12-29T01:48:50.916Z,12.00
2022-12-29T01:51:19.296Z,12.00
2022-12-29T01:53:47.886Z,12.00
2022-12-29T01:56:18.920Z,12.00
2022-12-29T01:58:50.054Z,12.00
2022-12-29T02:01:21.738Z,12.00
2022-12-29T02:03:51.106Z,12.00
2022-12-29T02:06:23.967Z,11.90
2022-12-29T02:08:54.266Z,12.00
2022-12-29T02:11:23.701Z,11.90
2022-12-29T02:13:51.598Z,11.90
2022-12-29T02:16:36.255Z,11.90
2022-12-29T02:19:28.753Z,11.90
2022-12-29T02:22:09.857Z,11.90
2022-12-29T02:25:12.722Z,11.90
2022-12-29T02:27:55.888Z,11.90
2022-12-29T02:30:42.508Z,11.80
2022-12-29T02:33:23.847Z,11.80
2022-12-29T02:35:59.498Z,11.80
2022-12-29T02:38:40.498Z,11.80
2022-12-29T02:41:16.308Z,11.90
2022-12-29T02:43:52.851Z,11.80
2022-12-29T02:46:30.174Z,11.80
2022-12-29T02:49:08.252Z,11.80
2022-12-29T02:51:41.814Z,11.80
2022-12-29T02:54:27.733Z,11.80
2022-12-29T02:56:55.586Z,11.80
2022-12-29T02:59:24.935Z,11.80
2022-12-29T03:02:19.301Z,11.80
2022-12-29T03:05:08.794Z,11.80
2022-12-29T03:07:45.575Z,11.80
2022-12-29T03:10:27.161Z,11.80
2022-12-29T03:13:25.133Z,11.90
2022-12-29T03:16:03.360Z,11.80
2022-12-29T03:18:46.206Z,11.80
2022-12-29T03:21:18.589Z,11.80
2022-12-29T03:23:49.745Z,11.80
2022-12-29T03:26:20.357Z,11.80
2022-12-29T03:28:52.592Z,11.70
2022-12-29T03:31:22.521Z,11.70
2022-12-29T03:33:53.675Z,11.70
2022-12-29T03:36:29.417Z,11.70
2022-12-29T03:39:03.678Z,11.70
2022-12-29T03:41:35.038Z,11.70
2022-12-29T03:44:02.979Z,11.70
2022-12-29T03:46:31.093Z,11.70
2022-12-29T03:49:00.557Z,11.70
2022-12-29T03:51:28.473Z,11.70
2022-12-29T03:53:56.468Z,11.70
2022-12-29T03:56:24.434Z,11.70
2022-12-29T03:58:52.335Z,11.60
2022-12-29T04:01:20.235Z,11.60
2022-12-29T04:03:48.464Z,11.60
2022-12-29T04:06:17.788Z,11.60
2022-12-29T04:08:45.676Z,11.60
2022-12-29T04:11:13.650Z,11.60
2022-12-29T04:13:42.482Z,11.50
2022-12-29T04:16:10.502Z,11.50
2022-12-29T04:18:38.546Z,11.50
2022-12-29T04:21:06.760Z,11.50
2022-12-29T04:23:38.984Z,11.50
2022-12-29T04:26:08.608Z,11.50
2022-12-29T04:28:36.732Z,11.50
2022-12-29T04:31:05.049Z,11.50
2022-12-29T04:33:33.161Z,11.50
2022-12-29T04:36:01.073Z,11.50
2022-12-29T04:38:29.333Z,11.50
2022-12-29T04:41:01.977Z,11.50
2022-12-29T04:43:30.396Z,11.60
2022-12-29T04:45:58.769Z,11.60
2022-12-29T04:48:26.760Z,11.60
2022-12-29T04:50:54.632Z,11.60
2022-12-29T04:53:22.762Z,11.60
2022-12-29T04:55:51.507Z,11.60
2022-12-29T04:58:23.035Z,11.60
2022-12-29T05:00:51.886Z,11.60
2022-12-29T05:03:19.937Z,11.60
2022-12-29T05:05:48.142Z,11.60
2022-12-29T05:08:16.072Z,11.60
2022-12-29T05:10:47.478Z,11.60
2022-12-29T05:13:15.509Z,11.60
2022-12-29T05:15:49.798Z,11.60
2022-12-29T05:18:17.968Z,11.60
2022-12-29T05:20:46.525Z,11.60
2022-12-29T05:23:14.812Z,11.60
2022-12-29T05:25:42.852Z,11.60
2022-12-29T05:28:10.776Z,11.50
2022-12-29T05:30:38.701Z,11.50
2022-12-29T05:33:08.159Z,11.50
2022-12-29T05:35:36.071Z,11.50
2022-12-29T05:38:03.949Z,11.50
2022-12-29T05:40:32.020Z,11.50
2022-12-29T05:43:00.751Z,11.40
2022-12-29T05:45:28.788Z,11.50
2022-12-29T05:47:56.689Z,11.50
2022-12-29T05:50:25.990Z,11.50
2022-12-29T05:52:54.031Z,11.40
2022-12-29T05:55:22.302Z,11.40
2022-12-29T05:57:50.163Z,11.40
2022-12-29T06:00:18.557Z,11.40
2022-12-29T06:02:46.741Z,11.40
2022-12-29T06:05:14.940Z,11.30
2022-12-29T06:07:45.730Z,11.30
2022-12-29T06:10:13.841Z,11.30
2022-12-29T06:12:41.766Z,11.30
2022-12-29T06:15:10.558Z,11.30
2022-12-29T06:17:38.499Z,11.30
2022-12-29T06:20:07.331Z,11.30
2022-12-29T06:22:35.381Z,11.30
2022-12-29T06:25:06.421Z,11.40
2022-12-29T06:27:34.541Z,11.40
2022-12-29T06:30:02.492Z,11.40
2022-12-29T06:32:30.571Z,11.40
2022-12-29T06:34:58.436Z,11.40
2022-12-29T06:37:26.402Z,11.40
2022-12-29T06:39:54.425Z,11.40
2022-12-29T06:42:23.649Z,11.40
2022-12-29T06:44:51.649Z,11.40
2022-12-29T06:47:19.780Z,11.40
2022-12-29T06:49:47.688Z,11.40
2022-12-29T06:52:15.598Z,11.40
2022-12-29T06:54:43.449Z,11.30
2022-12-29T06:57:11.385Z,11.30
2022-12-29T06:59:40.595Z,11.30
2022-12-29T07:02:08.773Z,11.30
2022-12-29T07:04:36.784Z,11.20
2022-12-29T07:07:05.054Z,11.20
2022-12-29T07:09:32.967Z,11.20
2022-12-29T07:12:01.480Z,11.10
2022-12-29T07:14:29.523Z,10.90
2022-12-29T07:16:58.871Z,10.80
2022-12-29T07:19:26.868Z,10.80
2022-12-29T07:21:56.572Z,10.80
2022-12-29T07:24:26.577Z,10.80
2022-12-29T07:26:54.616Z,10.70
2022-12-29T07:29:22.788Z,10.70
2022-12-29T07:31:50.709Z,10.70
2022-12-29T07:34:20.043Z,10.70
2022-12-29T07:36:47.993Z,10.70
2022-12-29T07:39:15.949Z,10.70
2022-12-29T07:41:43.888Z,10.60
2022-12-29T07:44:11.969Z,10.60
2022-12-29T07:46:55.599Z,10.60
2022-12-29T07:49:26.709Z,10.50
2022-12-29T07:51:54.599Z,10.50
2022-12-29T07:54:24.073Z,10.50
2022-12-29T07:56:52.526Z,10.40
2022-12-29T07:59:20.680Z,10.40
2022-12-29T08:01:48.854Z,10.40
2022-12-29T08:04:17.192Z,10.40
2022-12-29T08:06:47.371Z,10.40
2022-12-29T08:09:21.891Z,10.40
2022-12-29T08:11:50.745Z,10.40
2022-12-29T08:14:19.292Z,10.40
2022-12-29T08:16:47.281Z,10.40
2022-12-29T08:19:15.620Z,10.50
2022-12-29T08:21:43.531Z,10.50
2022-12-29T08:24:13.017Z,10.60
2022-12-29T08:26:41.101Z,10.60
2022-12-29T08:29:08.957Z,10.60
2022-12-29T08:31:37.168Z,10.60
2022-12-29T08:34:05.291Z,10.60
2022-12-29T08:36:33.250Z,10.70
2022-12-29T08:39:01.472Z,10.70
2022-12-29T08:41:30.765Z,10.70
2022-12-29T08:43:58.737Z,10.70
2022-12-29T08:46:26.938Z,10.80
2022-12-29T08:48:55.692Z,10.80
2022-12-29T08:51:25.117Z,10.80
2022-12-29T08:53:53.679Z,10.80
2022-12-29T08:56:21.784Z,10.80
2022-12-29T08:58:51.055Z,10.80
2022-12-29T09:01:19.091Z,10.80
2022-12-29T09:06:40.177Z,10.90
2022-12-29T09:09:08.911Z,10.90
2022-12-29T09:11:36.892Z,10.90
2022-12-29T09:14:06.375Z,10.90
2022-12-29T09:16:34.639Z,10.90
2022-12-29T09:19:02.710Z,10.90
2022-12-29T09:21:30.765Z,10.90
2022-12-29T09:23:58.819Z,10.90
2022-12-29T09:26:26.860Z,10.90
2022-12-29T09:28:54.907Z,10.90
2022-12-29T09:31:24.298Z,10.90
2022-12-29T09:33:52.269Z,10.90
2022-12-29T09:36:20.232Z,10.90
2022-12-29T09:38:48.160Z,11.00
2022-12-29T09:41:24.426Z,11.00
2022-12-29T09:44:08.732Z,11.00
2022-12-29T09:46:41.271Z,11.00
2022-12-29T09:49:18.396Z,10.90
2022-12-29T09:51:50.359Z,11.00
2022-12-29T09:54:30.384Z,10.90
2022-12-29T09:56:58.600Z,11.00
2022-12-29T09:59:33.814Z,10.90
2022-12-29T10:02:15.062Z,10.90
2022-12-29T10:04:45.248Z,10.90
2022-12-29T10:07:29.476Z,10.90
2022-12-29T10:10:12.290Z,10.80
2022-12-29T10:12:54.324Z,10.80
2022-12-29T10:15:42.615Z,10.80
2022-12-29T10:18:22.931Z,10.80
2022-12-29T10:20:56.085Z,10.80
2022-12-29T10:23:30.739Z,10.70
2022-12-29T10:26:00.893Z,10.70
2022-12-29T10:28:39.009Z,10.60
2022-12-29T10:31:11.180Z,10.70
2022-12-29T10:33:43.615Z,10.60
2022-12-29T10:36:18.480Z,10.60
2022-12-29T10:38:53.716Z,10.60
2022-12-29T10:41:25.923Z,10.60
2022-12-29T10:43:56.217Z,10.60
2022-12-29T10:46:27.556Z,10.60
2022-12-29T10:48:56.843Z,10.60
2022-12-29T10:51:27.587Z,10.60
2022-12-29T10:54:00.283Z,10.60
2022-12-29T10:56:34.970Z,10.50
2022-12-29T10:59:12.634Z,10.60
2022-12-29T11:01:52.271Z,10.50
2022-12-29T11:04:40.329Z,10.60
2022-12-29T11:07:15.008Z,10.50
2022-12-29T11:09:45.436Z,10.50
2022-12-29T11:12:25.707Z,10.60
2022-12-29T11:15:13.114Z,10.60
2022-12-29T11:17:47.258Z,10.60
2022-12-29T11:20:34.064Z,10.60
2022-12-29T11:23:02.779Z,10.60
2022-12-29T11:25:30.911Z,10.60
2022-12-29T11:28:01.772Z,10.70
2022-12-29T11:30:32.392Z,10.70
2022-12-29T11:33:04.676Z,10.70
2022-12-29T11:35:36.729Z,10.70
2022-12-29T11:38:05.850Z,10.80
2022-12-29T11:40:39.654Z,10.70
2022-12-29T11:43:07.929Z,10.70
2022-12-29T11:45:38.225Z,10.80
2022-12-29T11:48:10.138Z,10.70
2022-12-29T11:50:42.230Z,10.70
2022-12-29T11:53:19.556Z,10.70
2022-12-29T11:55:54.893Z,10.70
2022-12-29T11:58:22.888Z,10.70
2022-12-29T12:00:52.174Z,10.70
2022-12-29T12:03:24.287Z,10.70
2022-12-29T12:05:58.439Z,10.60
2022-12-29T12:08:37.986Z,10.60
2022-12-29T12:11:12.281Z,10.50
2022-12-29T12:13:45.653Z,10.50
2022-12-29T12:16:17.824Z,10.50
2022-12-29T12:18:50.055Z,10.50
2022-12-29T12:21:41.783Z,10.50
2022-12-29T12:24:35.915Z,10.60
2022-12-29T12:27:09.621Z,10.60
2022-12-29T12:29:40.302Z,10.60
2022-12-29T12:32:17.547Z,10.60
2022-12-29T12:34:47.387Z,10.70
2022-12-29T12:37:42.536Z,10.70
2022-12-29T12:40:36.885Z,10.70
2022-12-29T12:43:26.310Z,10.80
2022-12-29T12:46:03.346Z,10.80
2022-12-29T12:48:55.789Z,10.80
2022-12-29T12:51:35.063Z,10.90
2022-12-29T12:54:15.933Z,10.90
2022-12-29T12:56:58.379Z,10.90
2022-12-29T12:59:38.224Z,10.90
2022-12-29T13:02:22.556Z,10.90
2022-12-29T13:05:24.328Z,10.90
2022-12-29T13:08:06.202Z,10.90
2022-12-29T13:10:47.056Z,10.90
2022-12-29T13:13:51.748Z,10.90
2022-12-29T13:16:31.054Z,11.00
2022-12-29T13:19:03.753Z,10.90
2022-12-29T13:21:54.593Z,11.00
2022-12-29T13:24:34.467Z,11.00
2022-12-29T13:27:11.269Z,11.00
2022-12-29T13:29:49.121Z,11.00
2022-12-29T13:32:28.918Z,11.00
2022-12-29T13:35:09.558Z,11.00
2022-12-29T13:37:50.176Z,11.10
2022-12-29T13:40:21.094Z,11.00
2022-12-29T13:42:51.134Z,11.10
2022-12-29T13:45:21.650Z,11.10
2022-12-29T13:47:53.237Z,11.10
2022-12-29T13:50:24.026Z,11.10
2022-12-29T13:53:01.348Z,11.10
2022-12-29T13:55:34.214Z,11.10
2022-12-29T13:58:16.918Z,11.10
2022-12-29T14:00:53.200Z,11.10
2022-12-29T14:03:49.022Z,11.10
2022-12-29T14:06:26.119Z,11.10
2022-12-29T14:08:56.898Z,11.10
2022-12-29T14:11:31.282Z,11.10
